sensor_id;sensor_type;location;lat;lon;timestamp;P1;durP1;ratioP1;P2;durP2;ratioP2
14381;SDS011;7275;50.328;8.720;2022-12-10T00:01:20;9.63;;;7.70;;
14381;SDS011;7275;50.328;8.720;2022-12-10T00:03:48;11.13;;;8.37;;
14381;SDS011;7275;50.328;8.720;2022-12-10T00:06:16;10.90;;;8.20;;
14381;SDS011;7275;50.328;8.720;2022-12-10T00:08:46;11.70;;;8.97;;
14381;SDS011;7275;50.328;8.720;2022-12-10T00:11:14;9.80;;;8.43;;
14381;SDS011;7275;50.328;8.720;2022-12-10T00:13:44;9.93;;;8.03;;
14381;SDS011;7275;50.328;8.720;2022-12-10T00:16:12;12.37;;;8.30;;
14381;SDS011;7275;50.328;8.720;2022-12-10T00:18:42;10.03;;;8.00;;
14381;SDS011;7275;50.328;8.720;2022-12-10T00:21:10;9.87;;;8.43;;
14381;SDS011;7275;50.328;8.720;2022-12-10T00:23:39;10.70;;;8.70;;
14381;SDS011;7275;50.328;8.720;2022-12-10T00:26:11;12.23;;;9.60;;
14381;SDS011;7275;50.328;8.720;2022-12-10T00:28:40;10.73;;;9.30;;
14381;SDS011;7275;50.328;8.720;2022-12-10T00:31:10;12.00;;;9.33;;
14381;SDS011;7275;50.328;8.720;2022-12-10T00:33:39;10.40;;;8.57;;
14381;SDS011;7275;50.328;8.720;2022-12-10T00:36:08;9.33;;;7.83;;
14381;SDS011;7275;50.328;8.720;2022-12-10T00:38:36;10.23;;;8.63;;
14381;SDS011;7275;50.328;8.720;2022-12-10T00:41:05;11.67;;;9.37;;
14381;SDS011;7275;50.328;8.720;2022-12-10T00:43:33;13.50;;;10.53;;
14381;SDS011;7275;50.328;8.720;2022-12-10T00:46:02;12.10;;;9.77;;
14381;SDS011;7275;50.328;8.720;2022-12-10T00:48:29;13.63;;;10.30;;
14381;SDS011;7275;50.328;8.720;2022-12-10T00:50:57;13.80;;;10.00;;
14381;SDS011;7275;50.328;8.720;2022-12-10T00:53:27;14.17;;;10.00;;
14381;SDS011;7275;50.328;8.720;2022-12-10T00:55:56;12.20;;;9.47;;
14381;SDS011;7275;50.328;8.720;2022-12-10T00:58:26;11.40;;;8.57;;
14381;SDS011;7275;50.328;8.720;2022-12-10T01:01:01;12.63;;;9.63;;
14381;SDS011;7275;50.328;8.720;2022-12-10T01:03:33;12.03;;;9.10;;
14381;SDS011;7275;50.328;8.720;2022-12-10T01:06:07;11.43;;;9.03;;
14381;SDS011;7275;50.328;8.720;2022-12-10T01:08:35;12.27;;;9.77;;
14381;SDS011;7275;50.328;8.720;2022-12-10T01:11:03;12.07;;;9.37;;
14381;SDS011;7275;50.328;8.720;2022-12-10T01:13:31;11.97;;;9.00;;
14381;SDS011;7275;50.328;8.720;2022-12-10T01:16:00;11.07;;;8.43;;
14381;SDS011;7275;50.328;8.720;2022-12-10T01:18:29;10.80;;;8.47;;
14381;SDS011;7275;50.328;8.720;2022-12-10T01:20:59;10.67;;;8.60;;
14381;SDS011;7275;50.328;8.720;2022-12-10T01:23:27;10.67;;;8.73;;
14381;SDS011;7275;50.328;8.720;2022-12-10T01:25:58;10.73;;;8.73;;
14381;SDS011;7275;50.328;8.720;2022-12-10T01:28:27;10.30;;;8.30;;
14381;SDS011;7275;50.328;8.720;2022-12-10T01:31:01;9.57;;;7.87;;
14381;SDS011;7275;50.328;8.720;2022-12-10T01:33:29;11.07;;;8.27;;
14381;SDS011;7275;50.328;8.720;2022-12-10T01:35:57;10.60;;;8.37;;
14381;SDS011;7275;50.328;8.720;2022-12-10T01:38:28;9.93;;;8.47;;
14381;SDS011;7275;50.328;8.720;2022-12-10T01:40:55;9.70;;;8.00;;
14381;SDS011;7275;50.328;8.720;2022-12-10T01:43:23;10.40;;;8.03;;
14381;SDS011;7275;50.328;8.720;2022-12-10T01:45:50;9.27;;;7.00;;
14381;SDS011;7275;50.328;8.720;2022-12-10T01:48:19;9.87;;;7.67;;
14381;SDS011;7275;50.328;8.720;2022-12-10T01:50:47;9.67;;;7.77;;
14381;SDS011;7275;50.328;8.720;2022-12-10T01:53:14;9.87;;;7.97;;
14381;SDS011;7275;50.328;8.720;2022-12-10T01:55:46;9.70;;;7.63;;
14381;SDS011;7275;50.328;8.720;2022-12-10T01:58:16;9.77;;;8.27;;
14381;SDS011;7275;50.328;8.720;2022-12-10T02:00:49;9.63;;;7.90;;
14381;SDS011;7275;50.328;8.720;2022-12-10T02:03:27;9.20;;;7.43;;
14381;SDS011;7275;50.328;8.720;2022-12-10T02:06:04;9.50;;;7.80;;
14381;SDS011;7275;50.328;8.720;2022-12-10T02:08:43;9.50;;;7.47;;
14381;SDS011;7275;50.328;8.720;2022-12-10T02:11:18;10.50;;;7.87;;
14381;SDS011;7275;50.328;8.720;2022-12-10T02:13:50;9.80;;;7.67;;
14381;SDS011;7275;50.328;8.720;2022-12-10T02:16:26;9.17;;;7.27;;
14381;SDS011;7275;50.328;8.720;2022-12-10T02:19:00;9.80;;;7.30;;
14381;SDS011;7275;50.328;8.720;2022-12-10T02:21:38;8.50;;;7.07;;
14381;SDS011;7275;50.328;8.720;2022-12-10T02:24:10;8.50;;;7.00;;
14381;SDS011;7275;50.328;8.720;2022-12-10T02:26:43;8.87;;;7.40;;
14381;SDS011;7275;50.328;8.720;2022-12-10T02:29:19;8.80;;;6.93;;
14381;SDS011;7275;50.328;8.720;2022-12-10T02:31:52;9.00;;;6.80;;
14381;SDS011;7275;50.328;8.720;2022-12-10T02:34:23;9.37;;;7.60;;
14381;SDS011;7275;50.328;8.720;2022-12-10T02:36:53;9.10;;;7.43;;
14381;SDS011;7275;50.328;8.720;2022-12-10T02:39:23;8.90;;;7.47;;
14381;SDS011;7275;50.328;8.720;2022-12-10T02:41:56;8.53;;;7.10;;
14381;SDS011;7275;50.328;8.720;2022-12-10T02:44:28;10.30;;;7.80;;
14381;SDS011;7275;50.328;8.720;2022-12-10T02:46:57;9.40;;;7.53;;
14381;SDS011;7275;50.328;8.720;2022-12-10T02:49:25;10.53;;;7.33;;
14381;SDS011;7275;50.328;8.720;2022-12-10T02:51:55;9.00;;;7.67;;
14381;SDS011;7275;50.328;8.720;2022-12-10T02:54:36;9.90;;;7.70;;
14381;SDS011;7275;50.328;8.720;2022-12-10T02:57:08;9.53;;;7.93;;
14381;SDS011;7275;50.328;8.720;2022-12-10T02:59:47;9.30;;;7.13;;
14381;SDS011;7275;50.328;8.720;2022-12-10T03:02:26;9.77;;;7.70;;
14381;SDS011;7275;50.328;8.720;2022-12-10T03:05:02;8.67;;;7.03;;
14381;SDS011;7275;50.328;8.720;2022-12-10T03:07:37;8.50;;;7.20;;
14381;SDS011;7275;50.328;8.720;2022-12-10T03:10:12;8.77;;;7.23;;
14381;SDS011;7275;50.328;8.720;2022-12-10T03:12:47;9.00;;;7.27;;
14381;SDS011;7275;50.328;8.720;2022-12-10T03:15:18;10.13;;;7.50;;
14381;SDS011;7275;50.328;8.720;2022-12-10T03:17:47;10.10;;;7.67;;
14381;SDS011;7275;50.328;8.720;2022-12-10T03:20:16;8.77;;;7.53;;
14381;SDS011;7275;50.328;8.720;2022-12-10T03:22:45;8.70;;;7.00;;
14381;SDS011;7275;50.328;8.720;2022-12-10T03:25:15;8.93;;;7.23;;
14381;SDS011;7275;50.328;8.720;2022-12-10T03:27:46;8.57;;;7.13;;
14381;SDS011;7275;50.328;8.720;2022-12-10T03:30:17;9.27;;;7.23;;
14381;SDS011;7275;50.328;8.720;2022-12-10T03:32:45;8.87;;;7.57;;
14381;SDS011;7275;50.328;8.720;2022-12-10T03:35:13;9.10;;;7.53;;
14381;SDS011;7275;50.328;8.720;2022-12-10T03:37:42;10.70;;;7.80;;
14381;SDS011;7275;50.328;8.720;2022-12-10T03:40:11;9.10;;;7.50;;
14381;SDS011;7275;50.328;8.720;2022-12-10T03:42:39;9.50;;;7.80;;
14381;SDS011;7275;50.328;8.720;2022-12-10T03:45:07;8.67;;;7.33;;
14381;SDS011;7275;50.328;8.720;2022-12-10T03:47:36;9.10;;;7.27;;
14381;SDS011;7275;50.328;8.720;2022-12-10T03:50:04;8.23;;;6.77;;
14381;SDS011;7275;50.328;8.720;2022-12-10T03:52:32;8.97;;;7.40;;
14381;SDS011;7275;50.328;8.720;2022-12-10T03:55:00;7.93;;;6.37;;
14381;SDS011;7275;50.328;8.720;2022-12-10T03:57:27;7.57;;;6.30;;
14381;SDS011;7275;50.328;8.720;2022-12-10T03:59:55;8.67;;;7.43;;
14381;SDS011;7275;50.328;8.720;2022-12-10T04:02:23;8.13;;;7.07;;
14381;SDS011;7275;50.328;8.720;2022-12-10T04:04:52;8.30;;;7.03;;
14381;SDS011;7275;50.328;8.720;2022-12-10T04:07:19;8.37;;;7.07;;
14381;SDS011;7275;50.328;8.720;2022-12-10T04:09:47;9.30;;;6.70;;
14381;SDS011;7275;50.328;8.720;2022-12-10T04:12:14;9.67;;;7.13;;
14381;SDS011;7275;50.328;8.720;2022-12-10T04:14:42;7.87;;;6.73;;
14381;SDS011;7275;50.328;8.720;2022-12-10T04:17:27;8.37;;;6.50;;
14381;SDS011;7275;50.328;8.720;2022-12-10T04:19:55;8.87;;;7.10;;
14381;SDS011;7275;50.328;8.720;2022-12-10T04:22:23;8.87;;;6.93;;
14381;SDS011;7275;50.328;8.720;2022-12-10T04:25:09;9.43;;;7.50;;
14381;SDS011;7275;50.328;8.720;2022-12-10T04:27:55;8.70;;;6.80;;
14381;SDS011;7275;50.328;8.720;2022-12-10T04:30:23;8.10;;;6.73;;
14381;SDS011;7275;50.328;8.720;2022-12-10T04:32:51;8.10;;;6.73;;
14381;SDS011;7275;50.328;8.720;2022-12-10T04:35:19;8.23;;;6.47;;
14381;SDS011;7275;50.328;8.720;2022-12-10T04:37:47;7.50;;;6.43;;
14381;SDS011;7275;50.328;8.720;2022-12-10T04:40:14;8.07;;;6.40;;
14381;SDS011;7275;50.328;8.720;2022-12-10T04:42:42;7.23;;;6.40;;
14381;SDS011;7275;50.328;8.720;2022-12-10T04:45:09;6.97;;;6.27;;
14381;SDS011;7275;50.328;8.720;2022-12-10T04:47:37;8.00;;;6.53;;
14381;SDS011;7275;50.328;8.720;2022-12-10T04:50:05;7.63;;;6.07;;
14381;SDS011;7275;50.328;8.720;2022-12-10T04:52:34;7.80;;;6.50;;
14381;SDS011;7275;50.328;8.720;2022-12-10T04:55:02;7.67;;;6.53;;
14381;SDS011;7275;50.328;8.720;2022-12-10T04:57:30;7.70;;;6.33;;
14381;SDS011;7275;50.328;8.720;2022-12-10T04:59:57;7.97;;;6.63;;
14381;SDS011;7275;50.328;8.720;2022-12-10T05:02:24;8.50;;;6.70;;
14381;SDS011;7275;50.328;8.720;2022-12-10T05:04:52;8.50;;;6.63;;
14381;SDS011;7275;50.328;8.720;2022-12-10T05:07:19;7.63;;;6.40;;
14381;SDS011;7275;50.328;8.720;2022-12-10T05:09:48;6.83;;;6.07;;
14381;SDS011;7275;50.328;8.720;2022-12-10T05:12:16;8.03;;;6.87;;
14381;SDS011;7275;50.328;8.720;2022-12-10T05:14:43;7.93;;;6.73;;
14381;SDS011;7275;50.328;8.720;2022-12-10T05:17:10;7.90;;;6.70;;
14381;SDS011;7275;50.328;8.720;2022-12-10T05:19:38;8.50;;;7.00;;
14381;SDS011;7275;50.328;8.720;2022-12-10T05:22:05;7.47;;;6.20;;
14381;SDS011;7275;50.328;8.720;2022-12-10T05:24:53;8.20;;;6.30;;
14381;SDS011;7275;50.328;8.720;2022-12-10T05:27:21;6.97;;;6.07;;
14381;SDS011;7275;50.328;8.720;2022-12-10T05:29:48;7.13;;;5.80;;
14381;SDS011;7275;50.328;8.720;2022-12-10T05:32:16;8.30;;;6.30;;
14381;SDS011;7275;50.328;8.720;2022-12-10T05:34:43;6.90;;;5.87;;
14381;SDS011;7275;50.328;8.720;2022-12-10T05:37:11;7.70;;;6.57;;
14381;SDS011;7275;50.328;8.720;2022-12-10T05:39:38;6.60;;;5.73;;
14381;SDS011;7275;50.328;8.720;2022-12-10T05:42:07;7.90;;;6.50;;
14381;SDS011;7275;50.328;8.720;2022-12-10T05:44:34;7.10;;;5.90;;
14381;SDS011;7275;50.328;8.720;2022-12-10T05:47:02;6.90;;;6.03;;
14381;SDS011;7275;50.328;8.720;2022-12-10T05:49:29;7.57;;;6.40;;
14381;SDS011;7275;50.328;8.720;2022-12-10T05:51:57;7.43;;;5.93;;
14381;SDS011;7275;50.328;8.720;2022-12-10T05:54:24;6.73;;;6.03;;
14381;SDS011;7275;50.328;8.720;2022-12-10T05:56:52;8.00;;;6.03;;
14381;SDS011;7275;50.328;8.720;2022-12-10T05:59:21;7.40;;;6.07;;
14381;SDS011;7275;50.328;8.720;2022-12-10T06:01:48;7.77;;;6.40;;
14381;SDS011;7275;50.328;8.720;2022-12-10T06:04:16;8.00;;;6.40;;
14381;SDS011;7275;50.328;8.720;2022-12-10T06:06:43;8.43;;;6.77;;
14381;SDS011;7275;50.328;8.720;2022-12-10T06:09:12;7.43;;;6.13;;
14381;SDS011;7275;50.328;8.720;2022-12-10T06:11:40;7.27;;;6.53;;
14381;SDS011;7275;50.328;8.720;2022-12-10T06:14:08;10.17;;;7.33;;
14381;SDS011;7275;50.328;8.720;2022-12-10T06:16:38;8.10;;;7.07;;
14381;SDS011;7275;50.328;8.720;2022-12-10T06:19:07;7.93;;;6.73;;
14381;SDS011;7275;50.328;8.720;2022-12-10T06:21:34;8.73;;;7.07;;
14381;SDS011;7275;50.328;8.720;2022-12-10T06:24:02;9.53;;;6.97;;
14381;SDS011;7275;50.328;8.720;2022-12-10T06:26:29;11.47;;;8.50;;
14381;SDS011;7275;50.328;8.720;2022-12-10T06:28:57;8.07;;;6.83;;
14381;SDS011;7275;50.328;8.720;2022-12-10T06:31:26;8.70;;;6.90;;
14381;SDS011;7275;50.328;8.720;2022-12-10T06:33:55;8.67;;;7.00;;
14381;SDS011;7275;50.328;8.720;2022-12-10T06:36:22;8.53;;;7.13;;
14381;SDS011;7275;50.328;8.720;2022-12-10T06:38:50;8.57;;;7.07;;
14381;SDS011;7275;50.328;8.720;2022-12-10T06:41:18;8.33;;;6.93;;
14381;SDS011;7275;50.328;8.720;2022-12-10T06:43:46;8.63;;;7.63;;
14381;SDS011;7275;50.328;8.720;2022-12-10T06:46:14;9.30;;;7.30;;
14381;SDS011;7275;50.328;8.720;2022-12-10T06:48:44;8.57;;;7.13;;
14381;SDS011;7275;50.328;8.720;2022-12-10T06:51:13;7.83;;;6.87;;
14381;SDS011;7275;50.328;8.720;2022-12-10T06:53:41;9.43;;;7.60;;
14381;SDS011;7275;50.328;8.720;2022-12-10T06:56:10;9.63;;;7.37;;
14381;SDS011;7275;50.328;8.720;2022-12-10T06:58:40;8.97;;;7.40;;
14381;SDS011;7275;50.328;8.720;2022-12-10T07:01:09;8.43;;;6.83;;
14381;SDS011;7275;50.328;8.720;2022-12-10T07:03:39;9.17;;;6.83;;
14381;SDS011;7275;50.328;8.720;2022-12-10T07:06:07;8.33;;;6.90;;
14381;SDS011;7275;50.328;8.720;2022-12-10T07:08:37;9.10;;;7.10;;
14381;SDS011;7275;50.328;8.720;2022-12-10T07:11:05;7.97;;;6.80;;
14381;SDS011;7275;50.328;8.720;2022-12-10T07:13:33;8.23;;;6.80;;
14381;SDS011;7275;50.328;8.720;2022-12-10T07:16:02;7.57;;;6.30;;
14381;SDS011;7275;50.328;8.720;2022-12-10T07:18:30;8.23;;;6.27;;
14381;SDS011;7275;50.328;8.720;2022-12-10T07:20:57;8.17;;;6.53;;
14381;SDS011;7275;50.328;8.720;2022-12-10T07:23:25;8.20;;;6.67;;
14381;SDS011;7275;50.328;8.720;2022-12-10T07:25:55;8.57;;;6.30;;
14381;SDS011;7275;50.328;8.720;2022-12-10T07:28:22;8.37;;;6.60;;
14381;SDS011;7275;50.328;8.720;2022-12-10T07:30:49;8.50;;;6.73;;
14381;SDS011;7275;50.328;8.720;2022-12-10T07:33:17;8.13;;;7.03;;
14381;SDS011;7275;50.328;8.720;2022-12-10T07:35:44;8.80;;;6.83;;
14381;SDS011;7275;50.328;8.720;2022-12-10T07:38:14;7.37;;;6.20;;
14381;SDS011;7275;50.328;8.720;2022-12-10T07:40:42;8.67;;;6.57;;
14381;SDS011;7275;50.328;8.720;2022-12-10T07:43:10;7.60;;;6.57;;
14381;SDS011;7275;50.328;8.720;2022-12-10T07:45:38;7.77;;;6.67;;
14381;SDS011;7275;50.328;8.720;2022-12-10T07:48:05;7.93;;;6.43;;
14381;SDS011;7275;50.328;8.720;2022-12-10T07:50:33;8.03;;;7.20;;
14381;SDS011;7275;50.328;8.720;2022-12-10T07:53:00;11.53;;;7.97;;
14381;SDS011;7275;50.328;8.720;2022-12-10T07:55:28;8.67;;;6.83;;
14381;SDS011;7275;50.328;8.720;2022-12-10T07:57:55;9.67;;;7.77;;
14381;SDS011;7275;50.328;8.720;2022-12-10T08:00:24;8.60;;;7.30;;
14381;SDS011;7275;50.328;8.720;2022-12-10T08:02:51;8.77;;;7.30;;
14381;SDS011;7275;50.328;8.720;2022-12-10T08:05:19;10.03;;;7.43;;
14381;SDS011;7275;50.328;8.720;2022-12-10T08:07:46;8.13;;;7.13;;
14381;SDS011;7275;50.328;8.720;2022-12-10T08:10:14;8.13;;;6.80;;
14381;SDS011;7275;50.328;8.720;2022-12-10T08:12:41;8.93;;;7.50;;
14381;SDS011;7275;50.328;8.720;2022-12-10T08:15:09;8.33;;;6.93;;
14381;SDS011;7275;50.328;8.720;2022-12-10T08:17:38;8.80;;;7.53;;
14381;SDS011;7275;50.328;8.720;2022-12-10T08:20:06;10.80;;;7.23;;
14381;SDS011;7275;50.328;8.720;2022-12-10T08:22:34;9.07;;;7.70;;
14381;SDS011;7275;50.328;8.720;2022-12-10T08:25:02;9.33;;;7.90;;
14381;SDS011;7275;50.328;8.720;2022-12-10T08:27:30;9.97;;;8.37;;
14381;SDS011;7275;50.328;8.720;2022-12-10T08:29:57;10.07;;;7.93;;
14381;SDS011;7275;50.328;8.720;2022-12-10T08:32:25;10.53;;;8.67;;
14381;SDS011;7275;50.328;8.720;2022-12-10T08:34:54;11.10;;;8.70;;
14381;SDS011;7275;50.328;8.720;2022-12-10T08:37:21;10.57;;;8.47;;
14381;SDS011;7275;50.328;8.720;2022-12-10T08:39:49;9.60;;;8.17;;
14381;SDS011;7275;50.328;8.720;2022-12-10T08:42:16;10.50;;;8.67;;
14381;SDS011;7275;50.328;8.720;2022-12-10T08:44:44;9.67;;;8.20;;
14381;SDS011;7275;50.328;8.720;2022-12-10T08:47:11;8.87;;;7.57;;
14381;SDS011;7275;50.328;8.720;2022-12-10T08:49:39;10.97;;;8.67;;
14381;SDS011;7275;50.328;8.720;2022-12-10T08:52:07;10.40;;;8.43;;
14381;SDS011;7275;50.328;8.720;2022-12-10T08:54:35;10.43;;;8.27;;
14381;SDS011;7275;50.328;8.720;2022-12-10T08:57:02;10.40;;;8.57;;
14381;SDS011;7275;50.328;8.720;2022-12-10T08:59:30;10.10;;;8.27;;
14381;SDS011;7275;50.328;8.720;2022-12-10T09:01:57;9.97;;;7.83;;
14381;SDS011;7275;50.328;8.720;2022-12-10T09:04:25;9.80;;;8.03;;
14381;SDS011;7275;50.328;8.720;2022-12-10T09:06:52;11.37;;;8.90;;
14381;SDS011;7275;50.328;8.720;2022-12-10T09:09:21;9.67;;;8.20;;
14381;SDS011;7275;50.328;8.720;2022-12-10T09:11:48;9.40;;;7.43;;
14381;SDS011;7275;50.328;8.720;2022-12-10T09:14:16;8.97;;;7.50;;
14381;SDS011;7275;50.328;8.720;2022-12-10T09:16:43;8.13;;;6.90;;
14381;SDS011;7275;50.328;8.720;2022-12-10T09:19:11;8.43;;;6.93;;
14381;SDS011;7275;50.328;8.720;2022-12-10T09:21:45;8.50;;;7.40;;
14381;SDS011;7275;50.328;8.720;2022-12-10T09:24:13;9.23;;;7.63;;
14381;SDS011;7275;50.328;8.720;2022-12-10T09:26:42;9.77;;;7.80;;
14381;SDS011;7275;50.328;8.720;2022-12-10T09:29:09;8.13;;;6.83;;
14381;SDS011;7275;50.328;8.720;2022-12-10T09:31:36;8.37;;;6.40;;
14381;SDS011;7275;50.328;8.720;2022-12-10T09:34:04;8.70;;;7.10;;
14381;SDS011;7275;50.328;8.720;2022-12-10T09:36:32;8.37;;;7.47;;
14381;SDS011;7275;50.328;8.720;2022-12-10T09:38:59;7.73;;;6.87;;
14381;SDS011;7275;50.328;8.720;2022-12-10T09:44:22;8.00;;;6.43;;
14381;SDS011;7275;50.328;8.720;2022-12-10T09:46:59;7.70;;;6.50;;
14381;SDS011;7275;50.328;8.720;2022-12-10T09:49:32;7.90;;;6.50;;
14381;SDS011;7275;50.328;8.720;2022-12-10T09:52:10;7.53;;;6.43;;
14381;SDS011;7275;50.328;8.720;2022-12-10T09:54:39;7.43;;;6.47;;
14381;SDS011;7275;50.328;8.720;2022-12-10T09:57:15;7.17;;;6.13;;
14381;SDS011;7275;50.328;8.720;2022-12-10T09:59:48;7.70;;;6.83;;
14381;SDS011;7275;50.328;8.720;2022-12-10T10:02:19;8.43;;;7.13;;
14381;SDS011;7275;50.328;8.720;2022-12-10T10:04:49;7.60;;;6.70;;
14381;SDS011;7275;50.328;8.720;2022-12-10T10:07:20;8.40;;;7.13;;
14381;SDS011;7275;50.328;8.720;2022-12-10T10:09:49;7.67;;;6.80;;
14381;SDS011;7275;50.328;8.720;2022-12-10T10:12:19;7.53;;;6.50;;
14381;SDS011;7275;50.328;8.720;2022-12-10T10:14:46;7.30;;;6.50;;
14381;SDS011;7275;50.328;8.720;2022-12-10T10:17:16;7.27;;;6.47;;
14381;SDS011;7275;50.328;8.720;2022-12-10T10:19:51;7.40;;;6.60;;
14381;SDS011;7275;50.328;8.720;2022-12-10T10:22:18;8.33;;;7.20;;
14381;SDS011;7275;50.328;8.720;2022-12-10T10:24:46;8.90;;;7.30;;
14381;SDS011;7275;50.328;8.720;2022-12-10T10:27:14;9.43;;;8.27;;
14381;SDS011;7275;50.328;8.720;2022-12-10T10:29:45;8.87;;;7.50;;
14381;SDS011;7275;50.328;8.720;2022-12-10T10:32:25;8.83;;;7.50;;
14381;SDS011;7275;50.328;8.720;2022-12-10T10:35:19;9.57;;;7.60;;
14381;SDS011;7275;50.328;8.720;2022-12-10T10:37:48;8.70;;;7.70;;
14381;SDS011;7275;50.328;8.720;2022-12-10T10:40:24;9.30;;;7.40;;
14381;SDS011;7275;50.328;8.720;2022-12-10T10:42:54;8.47;;;7.30;;
14381;SDS011;7275;50.328;8.720;2022-12-10T10:48:19;8.43;;;7.17;;
14381;SDS011;7275;50.328;8.720;2022-12-10T10:50:49;8.67;;;7.67;;
14381;SDS011;7275;50.328;8.720;2022-12-10T10:53:22;7.67;;;6.87;;
14381;SDS011;7275;50.328;8.720;2022-12-10T10:55:51;8.23;;;7.30;;
14381;SDS011;7275;50.328;8.720;2022-12-10T10:58:20;7.77;;;6.97;;
14381;SDS011;7275;50.328;8.720;2022-12-10T11:00:54;7.93;;;6.93;;
14381;SDS011;7275;50.328;8.720;2022-12-10T11:03:24;7.10;;;6.40;;
14381;SDS011;7275;50.328;8.720;2022-12-10T11:05:53;7.30;;;6.60;;
14381;SDS011;7275;50.328;8.720;2022-12-10T11:08:21;6.87;;;6.17;;
14381;SDS011;7275;50.328;8.720;2022-12-10T11:10:54;7.57;;;6.77;;
14381;SDS011;7275;50.328;8.720;2022-12-10T11:13:29;6.80;;;6.20;;
14381;SDS011;7275;50.328;8.720;2022-12-10T11:16:01;6.57;;;5.87;;
14381;SDS011;7275;50.328;8.720;2022-12-10T11:18:37;6.50;;;5.90;;
14381;SDS011;7275;50.328;8.720;2022-12-10T11:21:15;7.07;;;6.47;;
14381;SDS011;7275;50.328;8.720;2022-12-10T11:23:46;6.43;;;5.83;;
14381;SDS011;7275;50.328;8.720;2022-12-10T11:26:19;6.50;;;5.90;;
14381;SDS011;7275;50.328;8.720;2022-12-10T11:29:00;6.80;;;6.20;;
14381;SDS011;7275;50.328;8.720;2022-12-10T11:31:39;5.90;;;5.40;;
14381;SDS011;7275;50.328;8.720;2022-12-10T11:34:18;6.33;;;5.83;;
14381;SDS011;7275;50.328;8.720;2022-12-10T11:36:56;6.10;;;5.53;;
14381;SDS011;7275;50.328;8.720;2022-12-10T11:39:40;5.80;;;5.30;;
14381;SDS011;7275;50.328;8.720;2022-12-10T11:42:20;5.63;;;5.13;;
14381;SDS011;7275;50.328;8.720;2022-12-10T11:44:56;5.80;;;5.30;;
14381;SDS011;7275;50.328;8.720;2022-12-10T11:47:34;5.72;;;5.22;;
14381;SDS011;7275;50.328;8.720;2022-12-10T11:50:14;5.47;;;5.07;;
14381;SDS011;7275;50.328;8.720;2022-12-10T11:52:57;5.38;;;4.97;;
14381;SDS011;7275;50.328;8.720;2022-12-10T11:55:35;5.07;;;4.68;;
14381;SDS011;7275;50.328;8.720;2022-12-10T11:58:15;5.57;;;5.07;;
14381;SDS011;7275;50.328;8.720;2022-12-10T12:00:55;4.78;;;4.38;;
14381;SDS011;7275;50.328;8.720;2022-12-10T12:03:37;4.30;;;4.00;;
14381;SDS011;7275;50.328;8.720;2022-12-10T12:06:20;5.07;;;4.68;;
14381;SDS011;7275;50.328;8.720;2022-12-10T12:09:13;5.35;;;4.90;;
14381;SDS011;7275;50.328;8.720;2022-12-10T12:11:51;5.72;;;5.25;;
14381;SDS011;7275;50.328;8.720;2022-12-10T12:14:25;5.10;;;4.70;;
14381;SDS011;7275;50.328;8.720;2022-12-10T12:17:00;4.95;;;4.55;;
14381;SDS011;7275;50.328;8.720;2022-12-10T12:19:34;5.07;;;4.68;;
14381;SDS011;7275;50.328;8.720;2022-12-10T12:22:07;4.30;;;4.00;;
14381;SDS011;7275;50.328;8.720;2022-12-10T12:24:41;4.82;;;4.43;;
14381;SDS011;7275;50.328;8.720;2022-12-10T12:27:14;4.95;;;4.55;;
14381;SDS011;7275;50.328;8.720;2022-12-10T12:29:51;5.35;;;4.95;;
14381;SDS011;7275;50.328;8.720;2022-12-10T12:32:27;5.20;;;4.80;;
14381;SDS011;7275;50.328;8.720;2022-12-10T12:35:01;4.50;;;4.10;;
14381;SDS011;7275;50.328;8.720;2022-12-10T12:37:34;4.90;;;4.50;;
14381;SDS011;7275;50.328;8.720;2022-12-10T12:40:09;4.70;;;4.30;;
14381;SDS011;7275;50.328;8.720;2022-12-10T12:42:41;4.53;;;4.13;;
14381;SDS011;7275;50.328;8.720;2022-12-10T12:45:14;4.72;;;4.32;;
14381;SDS011;7275;50.328;8.720;2022-12-10T12:47:47;4.70;;;4.30;;
14381;SDS011;7275;50.328;8.720;2022-12-10T12:50:28;4.57;;;4.18;;
14381;SDS011;7275;50.328;8.720;2022-12-10T12:53:09;4.20;;;3.90;;
14381;SDS011;7275;50.328;8.720;2022-12-10T12:55:43;4.30;;;3.90;;
14381;SDS011;7275;50.328;8.720;2022-12-10T12:58:19;11.13;;;10.10;;
14381;SDS011;7275;50.328;8.720;2022-12-10T13:00:55;7.15;;;6.35;;
14381;SDS011;7275;50.328;8.720;2022-12-10T13:03:33;6.22;;;5.65;;
14381;SDS011;7275;50.328;8.720;2022-12-10T13:06:17;5.28;;;4.78;;
14381;SDS011;7275;50.328;8.720;2022-12-10T13:08:48;4.53;;;4.13;;
14381;SDS011;7275;50.328;8.720;2022-12-10T13:11:18;4.63;;;4.22;;
14381;SDS011;7275;50.328;8.720;2022-12-10T13:17:00;4.10;;;3.70;;
14381;SDS011;7275;50.328;8.720;2022-12-10T13:19:43;4.50;;;4.10;;
14381;SDS011;7275;50.328;8.720;2022-12-10T13:22:12;4.40;;;4.03;;
14381;SDS011;7275;50.328;8.720;2022-12-10T13:25:12;4.27;;;3.90;;
14381;SDS011;7275;50.328;8.720;2022-12-10T13:27:41;4.07;;;3.77;;
14381;SDS011;7275;50.328;8.720;2022-12-10T13:30:30;4.00;;;3.70;;
14381;SDS011;7275;50.328;8.720;2022-12-10T13:35:51;4.22;;;3.90;;
14381;SDS011;7275;50.328;8.720;2022-12-10T13:38:38;4.32;;;3.92;;
14381;SDS011;7275;50.328;8.720;2022-12-10T13:41:07;5.88;;;5.32;;
14381;SDS011;7275;50.328;8.720;2022-12-10T13:43:54;4.80;;;4.40;;
14381;SDS011;7275;50.328;8.720;2022-12-10T13:46:51;4.43;;;4.03;;
14381;SDS011;7275;50.328;8.720;2022-12-10T13:49:22;5.45;;;4.95;;
14381;SDS011;7275;50.328;8.720;2022-12-10T13:51:58;4.68;;;4.22;;
14381;SDS011;7275;50.328;8.720;2022-12-10T14:00:31;3.80;;;3.50;;
14381;SDS011;7275;50.328;8.720;2022-12-10T14:06:13;3.50;;;3.20;;
14381;SDS011;7275;50.328;8.720;2022-12-10T14:08:52;3.70;;;3.40;;
14381;SDS011;7275;50.328;8.720;2022-12-10T14:11:26;3.90;;;3.60;;
14381;SDS011;7275;50.328;8.720;2022-12-10T14:14:02;3.77;;;3.47;;
14381;SDS011;7275;50.328;8.720;2022-12-10T14:16:32;3.80;;;3.50;;
14381;SDS011;7275;50.328;8.720;2022-12-10T14:19:02;3.57;;;3.27;;
14381;SDS011;7275;50.328;8.720;2022-12-10T14:21:32;3.70;;;3.40;;
14381;SDS011;7275;50.328;8.720;2022-12-10T14:24:01;3.50;;;3.20;;
14381;SDS011;7275;50.328;8.720;2022-12-10T14:26:31;3.43;;;3.13;;
14381;SDS011;7275;50.328;8.720;2022-12-10T14:29:12;3.40;;;3.10;;
14381;SDS011;7275;50.328;8.720;2022-12-10T14:31:54;3.47;;;3.17;;
14381;SDS011;7275;50.328;8.720;2022-12-10T14:34:23;3.90;;;3.60;;
14381;SDS011;7275;50.328;8.720;2022-12-10T14:36:53;3.50;;;3.20;;
14381;SDS011;7275;50.328;8.720;2022-12-10T14:39:24;4.57;;;4.10;;
14381;SDS011;7275;50.328;8.720;2022-12-10T14:41:56;4.80;;;4.10;;
14381;SDS011;7275;50.328;8.720;2022-12-10T14:44:25;3.57;;;3.27;;
14381;SDS011;7275;50.328;8.720;2022-12-10T14:47:01;3.60;;;3.30;;
14381;SDS011;7275;50.328;8.720;2022-12-10T14:49:30;3.90;;;3.50;;
14381;SDS011;7275;50.328;8.720;2022-12-10T14:51:59;3.67;;;3.37;;
14381;SDS011;7275;50.328;8.720;2022-12-10T14:54:28;3.60;;;3.30;;
14381;SDS011;7275;50.328;8.720;2022-12-10T14:56:59;4.23;;;3.80;;
14381;SDS011;7275;50.328;8.720;2022-12-10T14:59:30;3.63;;;3.30;;
14381;SDS011;7275;50.328;8.720;2022-12-10T15:02:05;3.13;;;2.83;;
14381;SDS011;7275;50.328;8.720;2022-12-10T15:04:43;3.43;;;2.93;;
14381;SDS011;7275;50.328;8.720;2022-12-10T15:07:14;2.90;;;2.70;;
14381;SDS011;7275;50.328;8.720;2022-12-10T15:09:46;3.40;;;3.00;;
14381;SDS011;7275;50.328;8.720;2022-12-10T15:12:28;4.87;;;3.90;;
14381;SDS011;7275;50.328;8.720;2022-12-10T15:15:01;6.60;;;5.03;;
14381;SDS011;7275;50.328;8.720;2022-12-10T15:17:35;5.43;;;4.30;;
14381;SDS011;7275;50.328;8.720;2022-12-10T15:20:09;3.87;;;3.30;;
14381;SDS011;7275;50.328;8.720;2022-12-10T15:22:48;3.77;;;3.37;;
14381;SDS011;7275;50.328;8.720;2022-12-10T15:25:19;4.07;;;3.53;;
14381;SDS011;7275;50.328;8.720;2022-12-10T15:27:55;4.00;;;3.60;;
14381;SDS011;7275;50.328;8.720;2022-12-10T15:30:31;3.60;;;3.30;;
14381;SDS011;7275;50.328;8.720;2022-12-10T15:33:01;3.50;;;3.20;;
14381;SDS011;7275;50.328;8.720;2022-12-10T15:35:28;3.73;;;3.30;;
14381;SDS011;7275;50.328;8.720;2022-12-10T15:37:56;3.97;;;3.30;;
14381;SDS011;7275;50.328;8.720;2022-12-10T15:40:26;3.77;;;3.40;;
14381;SDS011;7275;50.328;8.720;2022-12-10T15:43:11;5.43;;;3.90;;
14381;SDS011;7275;50.328;8.720;2022-12-10T15:45:48;5.53;;;4.00;;